Time;durP1;ratioP1;P1;durP2;ratioP2;P2;SDS_P1;SDS_P2;PMS_P1;PMS_P2;Temp;Humidity;BMP_temperature;BMP_pressure;BME280_temperature;BME280_humidity;BME280_pressure;Samples;Min_cycle;Max_cycle;Signal;HPM_P1;HPM_P2
2023/04/09 05:03:17;;;;;;;16.05;11.30;;;8.20;99.90;;;;;;6125004;29;20044;-77
2023/04/09 05:06:19;;;;;;;17.92;12.57;;;8.20;99.90;;;;;;6127528;29;20048;-78
2023/04/09 05:09:21;;;;;;;17.13;12.38;;;8.30;99.90;;;;;;6127616;29;20052;-76
2023/04/09 05:12:23;;;;;;;13.93;10.60;;;8.40;99.90;;;;;;6126977;29;20043;-76
2023/04/09 05:15:25;;;;;;;14.27;10.55;;;8.40;99.90;;;;;;6122688;29;20060;-78
2023/04/09 05:18:28;;;;;;;13.65;10.32;;;8.30;99.90;;;;;;6126183;29;20508;-78
2023/04/09 05:21:30;;;;;;;14.70;11.38;;;8.30;99.90;;;;;;6126899;29;20056;-78
2023/04/09 05:24:32;;;;;;;16.88;11.45;;;8.30;99.90;;;;;;6125464;29;20052;-80
2023/04/09 05:27:34;;;;;;;15.65;12.13;;;8.30;99.90;;;;;;6126294;29;20103;-78
2023/04/09 05:30:36;;;;;;;17.48;12.38;;;8.30;99.90;;;;;;6127240;29;20099;-77
2023/04/09 05:33:39;;;;;;;17.13;11.60;;;8.40;99.90;;;;;;6126637;29;20047;-77
2023/04/09 05:36:41;;;;;;;17.50;12.02;;;8.50;99.90;;;;;;6126277;29;20397;-78
2023/04/09 05:39:43;;;;;;;18.50;12.77;;;8.40;99.90;;;;;;6126981;29;20048;-79
2023/04/09 05:42:45;;;;;;;17.30;12.48;;;8.20;99.90;;;;;;6127086;29;20058;-78
2023/04/09 05:45:47;;;;;;;17.38;12.82;;;8.20;99.90;;;;;;6126460;29;20055;-79
2023/04/09 05:48:50;;;;;;;16.60;12.57;;;7.90;99.90;;;;;;6118054;29;20073;-78
2023/04/09 05:51:52;;;;;;;16.20;11.85;;;8.00;99.90;;;;;;6125428;29;20070;-77
2023/04/09 05:54:54;;;;;;;15.80;12.55;;;8.10;99.90;;;;;;6145782;29;20051;-77
2023/04/09 05:57:56;;;;;;;15.77;11.85;;;8.20;99.90;;;;;;6125135;29;20044;-77
2023/04/09 06:00:58;;;;;;;16.13;12.90;;;8.10;99.90;;;;;;6124390;29;20254;-78
2023/04/09 06:04:01;;;;;;;17.40;13.18;;;8.00;99.90;;;;;;6124913;29;20058;-77
2023/04/09 06:07:03;;;;;;;18.15;13.20;;;8.20;99.90;;;;;;6113466;29;20055;-79
2023/04/09 06:10:06;;;;;;;17.65;13.18;;;8.20;99.90;;;;;;6140326;29;20048;-76
2023/04/09 06:13:10;;;;;;;19.00;14.10;;;8.30;99.90;;;;;;6132200;28;20062;-77
2023/04/09 06:16:11;;;;;;;18.88;13.35;;;8.30;99.90;;;;;;6129812;29;20135;-76
2023/04/09 06:19:16;;;;;;;17.85;13.10;;;8.20;99.90;;;;;;6129085;29;20504;-77
2023/04/09 06:22:18;;;;;;;16.90;13.10;;;8.20;99.90;;;;;;6127680;29;20048;-77
2023/04/09 06:25:20;;;;;;;18.52;13.77;;;8.40;99.90;;;;;;6132441;29;20078;-77
2023/04/09 06:28:22;;;;;;;16.70;13.00;;;8.50;99.90;;;;;;6135438;29;20039;-79
2023/04/09 06:31:23;;;;;;;18.20;12.68;;;8.60;99.90;;;;;;6130946;29;20061;-76
2023/04/09 06:34:27;;;;;;;18.35;13.82;;;8.70;99.90;;;;;;6141761;29;20048;-76
2023/04/09 06:37:29;;;;;;;18.08;13.40;;;8.40;99.90;;;;;;6130735;29;20059;-78
2023/04/09 06:40:30;;;;;;;16.40;12.15;;;8.60;99.90;;;;;;6130076;29;20047;-78
2023/04/09 06:43:32;;;;;;;17.80;12.13;;;8.70;99.90;;;;;;6129218;29;20048;-77
2023/04/09 06:46:34;;;;;;;17.60;12.65;;;8.80;99.90;;;;;;6130059;29;20401;-79
2023/04/09 06:49:37;;;;;;;16.63;12.55;;;8.90;99.90;;;;;;6131134;29;20063;-76
2023/04/09 06:52:39;;;;;;;16.20;12.00;;;9.00;99.90;;;;;;6132638;29;20044;-78
2023/04/09 06:55:42;;;;;;;17.52;12.02;;;9.00;99.90;;;;;;6129717;29;20051;-78
2023/04/09 06:58:43;;;;;;;17.80;12.25;;;9.00;99.90;;;;;;6124269;29;20051;-77
2023/04/09 07:01:46;;;;;;;16.23;11.90;;;9.00;99.90;;;;;;6123030;29;20052;-76
2023/04/09 07:04:49;;;;;;;16.65;12.20;;;9.00;99.90;;;;;;6129607;29;20056;-76
2023/04/09 07:07:51;;;;;;;15.90;12.15;;;9.00;99.90;;;;;;6126081;29;20044;-78
2023/04/09 07:10:53;;;;;;;15.52;11.60;;;9.00;99.90;;;;;;6128262;29;20493;-76
2023/04/09 07:13:55;;;;;;;15.20;11.65;;;9.00;99.90;;;;;;6123933;29;20071;-78
2023/04/09 07:16:57;;;;;;;17.52;12.55;;;9.20;99.90;;;;;;6135691;29;20059;-78
2023/04/09 07:20:00;;;;;;;17.00;12.27;;;9.20;99.90;;;;;;6128789;29;20489;-78
2023/04/09 07:23:02;;;;;;;14.80;10.70;;;9.30;99.90;;;;;;6129058;29;20056;-78
2023/04/09 07:26:04;;;;;;;15.15;10.63;;;9.40;99.90;;;;;;6124196;29;20058;-77
2023/04/09 07:29:06;;;;;;;13.88;10.57;;;9.30;99.90;;;;;;6130008;29;20055;-79
2023/04/09 07:32:08;;;;;;;14.25;10.55;;;9.40;99.90;;;;;;6127144;29;20207;-79
2023/04/09 07:35:11;;;;;;;15.77;10.52;;;9.50;99.90;;;;;;6124855;29;20055;-79
2023/04/09 07:38:13;;;;;;;14.70;10.52;;;9.30;99.90;;;;;;6129173;29;20477;-77
2023/04/09 07:41:15;;;;;;;14.43;10.80;;;9.30;99.90;;;;;;6127766;29;20047;-79
2023/04/09 07:44:17;;;;;;;13.27;9.80;;;9.30;99.90;;;;;;6128738;29;20058;-77
2023/04/09 07:47:19;;;;;;;14.85;10.73;;;9.50;99.90;;;;;;6123277;29;20505;-78
2023/04/09 07:50:22;;;;;;;14.05;10.40;;;9.50;99.90;;;;;;6127529;29;20055;-78
2023/04/09 07:53:24;;;;;;;14.02;10.50;;;9.50;99.90;;;;;;6127808;29;20059;-79
2023/04/09 07:56:26;;;;;;;12.32;9.30;;;9.50;99.10;;;;;;6126884;29;20044;-79
2023/04/09 07:59:29;;;;;;;12.73;9.02;;;9.50;98.50;;;;;;6124405;29;20489;-78
2023/04/09 08:02:31;;;;;;;12.83;9.40;;;9.70;98.00;;;;;;6132632;29;20082;-78
2023/04/09 08:05:35;;;;;;;12.00;8.80;;;9.80;98.10;;;;;;6128226;29;20319;-78
2023/04/09 08:08:37;;;;;;;10.68;8.13;;;10.10;97.00;;;;;;6127900;29;20138;-78
2023/04/09 08:11:39;;;;;;;11.90;9.20;;;10.20;95.90;;;;;;6132047;29;20485;-75
2023/04/09 08:14:41;;;;;;;11.35;8.35;;;10.30;95.90;;;;;;6119387;29;20047;-78
2023/04/09 08:17:43;;;;;;;12.02;8.60;;;10.40;95.60;;;;;;6126801;29;20048;-79
2023/04/09 08:20:46;;;;;;;11.77;8.63;;;10.40;95.10;;;;;;6128419;29;20058;-77
2023/04/09 08:23:48;;;;;;;11.75;8.48;;;10.50;94.80;;;;;;6127821;29;20063;-76
2023/04/09 08:26:50;;;;;;;9.18;6.75;;;10.50;94.70;;;;;;6126634;29;20055;-78
2023/04/09 08:29:51;;;;;;;10.35;7.25;;;10.60;93.90;;;;;;6127207;29;20051;-77
2023/04/09 08:32:53;;;;;;;11.15;7.60;;;10.70;93.60;;;;;;6125081;29;20044;-79
2023/04/09 08:35:57;;;;;;;8.45;6.00;;;10.70;92.60;;;;;;6127438;29;20043;-76
2023/04/09 08:38:59;;;;;;;9.18;6.35;;;10.80;92.80;;;;;;6127768;29;20052;-77
2023/04/09 08:42:01;;;;;;;9.50;6.95;;;10.70;91.40;;;;;;6127639;29;20405;-77
2023/04/09 08:45:05;;;;;;;9.23;6.50;;;10.80;91.60;;;;;;6129402;29;20052;-78
2023/04/09 08:48:10;;;;;;;9.32;6.82;;;10.80;91.20;;;;;;6122225;29;20150;-78
2023/04/09 08:51:14;;;;;;;9.93;7.35;;;10.50;91.10;;;;;;6131909;29;20056;-78
2023/04/09 08:54:18;;;;;;;8.07;6.22;;;10.80;90.90;;;;;;6129364;29;20043;-81
2023/04/09 08:57:20;;;;;;;8.88;6.60;;;10.90;91.00;;;;;;6127580;29;20044;-78
2023/04/09 09:00:22;;;;;;;10.55;6.65;;;10.90;89.90;;;;;;6127164;29;20512;-77
2023/04/09 09:03:24;;;;;;;7.93;5.80;;;11.00;90.30;;;;;;6142007;29;20047;-77
2023/04/09 09:06:31;;;;;;;8.02;6.18;;;11.20;90.40;;;;;;6125067;29;20048;-81
2023/04/09 09:09:50;;;;;;;6.75;5.05;;;11.30;88.90;;;;;;6124682;29;20051;-78
2023/04/09 09:12:52;;;;;;;6.70;5.10;;;11.40;86.40;;;;;;6126379;29;20051;-74
2023/04/09 09:15:55;;;;;;;8.32;5.65;;;11.40;85.20;;;;;;6135223;29;20044;-76
2023/04/09 09:18:57;;;;;;;8.70;5.72;;;11.30;85.60;;;;;;6128084;29;20469;-77
2023/04/09 09:22:03;;;;;;;7.97;5.90;;;11.30;86.00;;;;;;6131761;29;20063;-77
2023/04/09 09:25:13;;;;;;;7.25;5.45;;;11.30;85.50;;;;;;6126981;29;20066;-78
2023/04/09 09:28:14;;;;;;;7.25;5.43;;;11.50;85.40;;;;;;6125211;29;20047;-77
2023/04/09 09:31:19;;;;;;;6.85;5.20;;;11.70;84.50;;;;;;6126765;29;20048;-76
2023/04/09 09:34:23;;;;;;;6.65;4.80;;;11.80;84.00;;;;;;6127006;29;20499;-77
2023/04/09 09:37:30;;;;;;;;;;;11.80;82.30;;;;;;6126440;29;20052;-77
2023/04/09 09:40:32;;;;;;;8.57;5.60;;;11.80;80.60;;;;;;6126969;29;20328;-76
2023/04/09 09:43:41;;;;;;;7.25;5.68;;;11.70;79.70;;;;;;6125234;29;20055;-77
2023/04/09 09:46:45;;;;;;;7.80;5.90;;;11.70;81.00;;;;;;6126603;29;20051;-76
2023/04/09 09:49:49;;;;;;;9.05;6.07;;;11.70;81.60;;;;;;6131436;29;20126;-75
2023/04/09 09:53:01;;;;;;;8.07;5.70;;;11.60;82.40;;;;;;6142356;29;20119;-77
2023/04/09 09:56:06;;;;;;;8.40;6.13;;;11.80;82.10;;;;;;6141947;29;20501;-80
2023/04/09 09:59:16;;;;;;;8.82;6.47;;;11.60;81.10;;;;;;6130097;29;20051;-78
2023/04/09 10:02:20;;;;;;;7.97;5.93;;;11.40;82.30;;;;;;6121826;29;20066;-80
2023/04/09 10:05:25;;;;;;;7.90;6.22;;;11.50;82.20;;;;;;6127838;29;20043;-79
2023/04/09 10:08:32;;;;;;;8.75;6.30;;;11.50;82.30;;;;;;6121428;29;20111;-75
2023/04/09 10:11:36;;;;;;;8.23;6.47;;;11.60;80.90;;;;;;6135716;29;20075;-79
2023/04/09 10:14:40;;;;;;;8.77;6.65;;;11.50;81.20;;;;;;6128332;29;20426;-79
2023/04/09 10:17:41;;;;;;;7.78;5.97;;;11.40;81.30;;;;;;6130590;29;20501;-78
2023/04/09 10:20:51;;;;;;;7.68;5.72;;;11.40;80.60;;;;;;6130094;29;20051;-78
2023/04/09 10:23:55;;;;;;;7.63;5.40;;;11.40;79.80;;;;;;6128762;29;20378;-76
2023/04/09 10:27:09;;;;;;;7.90;5.50;;;11.50;79.10;;;;;;6129736;29;20052;-77
2023/04/09 10:30:31;;;;;;;7.43;5.47;;;11.60;78.40;;;;;;6131907;29;20058;-78
2023/04/09 10:33:36;;;;;;;7.40;5.60;;;11.60;78.10;;;;;;6127018;29;20048;-76
2023/04/09 10:36:38;;;;;;;8.00;5.88;;;11.80;78.70;;;;;;6130826;29;20060;-79
2023/04/09 10:39:46;;;;;;;7.65;5.80;;;11.90;78.40;;;;;;6119700;29;20051;-77
2023/04/09 10:42:49;;;;;;;7.63;5.40;;;12.10;77.90;;;;;;6111027;29;20044;-77
2023/04/09 10:45:52;;;;;;;9.00;6.05;;;12.20;77.50;;;;;;6125753;29;20052;-77
2023/04/09 10:49:10;;;;;;;7.78;5.88;;;12.20;76.90;;;;;;6139646;29;20059;-77
2023/04/09 10:52:14;;;;;;;8.13;6.32;;;12.10;76.70;;;;;;6135296;29;20110;-77
2023/04/09 10:55:37;;;;;;;9.68;6.10;;;12.20;77.10;;;;;;6125093;29;20051;-77
2023/04/09 10:58:38;;;;;;;7.32;5.53;;;12.40;76.60;;;;;;6122817;29;20809;-78
2023/04/09 11:01:40;;;;;;;7.70;5.82;;;12.70;75.30;;;;;;6116890;29;20044;-77
2023/04/09 11:04:59;;;;;;;7.80;6.00;;;12.90;74.10;;;;;;6121706;29;20055;-77
2023/04/09 11:08:06;;;;;;;8.70;5.72;;;13.20;75.70;;;;;;6138059;29;20059;-77
2023/04/09 11:11:11;;;;;;;6.78;4.80;;;13.10;74.00;;;;;;6128999;29;20062;-77
2023/04/09 11:14:20;;;;;;;6.95;5.07;;;13.30;72.60;;;;;;6126555;29;20507;-76
2023/04/09 11:17:22;;;;;;;6.78;5.10;;;13.50;72.80;;;;;;6125427;29;20052;-78
2023/04/09 11:20:27;;;;;;;7.30;5.47;;;13.30;73.30;;;;;;6123099;29;20051;-76
2023/04/09 11:23:29;;;;;;;7.60;5.43;;;13.20;76.20;;;;;;6127346;29;20055;-79
2023/04/09 11:26:36;;;;;;;7.75;5.75;;;13.20;73.40;;;;;;6125885;29;20405;-76
2023/04/09 11:29:39;;;;;;;9.00;5.78;;;13.40;73.60;;;;;;6125646;29;20051;-76
2023/04/09 11:32:41;;;;;;;8.32;5.82;;;13.60;72.30;;;;;;6118268;29;20048;-78
2023/04/09 11:35:43;;;;;;;7.38;5.53;;;13.80;71.90;;;;;;6115648;29;20048;-77
2023/04/09 11:38:49;;;;;;;7.22;5.68;;;13.90;72.10;;;;;;6126137;29;20055;-78
2023/04/09 11:41:52;;;;;;;7.70;5.60;;;13.90;70.70;;;;;;6125762;29;20055;-77
2023/04/09 11:44:54;;;;;;;7.82;5.22;;;13.80;70.90;;;;;;6124713;29;20055;-81
2023/04/09 11:47:56;;;;;;;7.40;5.43;;;13.90;72.20;;;;;;6125139;29;20379;-78
2023/04/09 11:50:58;;;;;;;6.53;4.97;;;13.90;70.20;;;;;;6125792;29;20055;-78
2023/04/09 11:54:02;;;;;;;6.68;4.82;;;14.00;67.60;;;;;;6126741;29;20058;-76
2023/04/09 11:57:06;;;;;;;7.13;5.45;;;14.30;69.00;;;;;;6122642;29;20052;-80
2023/04/09 12:00:11;;;;;;;7.15;4.45;;;14.50;67.20;;;;;;6125445;29;20052;-78
2023/04/09 12:03:14;;;;;;;7.03;4.88;;;14.50;68.60;;;;;;6118926;29;20103;-80
2023/04/09 12:06:21;;;;;;;8.40;5.87;;;14.50;67.30;;;;;;6114956;29;20055;-79
2023/04/09 12:09:23;;;;;;;7.28;5.32;;;14.70;66.70;;;;;;6126625;29;20311;-77
2023/04/09 12:12:26;;;;;;;5.90;4.68;;;14.70;68.00;;;;;;6125385;29;20058;-77
2023/04/09 12:15:33;;;;;;;6.38;4.47;;;14.90;68.00;;;;;;6124964;29;20493;-78
2023/04/09 12:18:37;;;;;;;7.03;4.85;;;15.00;65.80;;;;;;6125550;29;20052;-78
2023/04/09 12:21:46;;;;;;;;;;;14.90;66.00;;;;;;6123443;29;20062;-78
2023/04/09 12:24:48;;;;;;;7.10;4.88;;;14.80;66.90;;;;;;6124273;29;19923;-77
2023/04/09 12:27:51;;;;;;;6.47;4.53;;;15.00;66.10;;;;;;6127519;29;20059;-80
2023/04/09 12:30:53;;;;;;;7.38;5.50;;;15.10;65.10;;;;;;6127526;29;20058;-78
2023/04/09 12:33:55;;;;;;;9.30;7.20;;;15.00;65.60;;;;;;6125173;29;20420;-79
2023/04/09 12:36:57;;;;;;;7.43;5.35;;;15.50;64.60;;;;;;6122157;29;20048;-79
2023/04/09 12:39:59;;;;;;;8.25;5.57;;;15.70;64.10;;;;;;6121623;29;20055;-80
2023/04/09 12:43:02;;;;;;;5.80;4.38;;;15.40;63.70;;;;;;6124046;29;20521;-79
2023/04/09 12:46:05;;;;;;;6.82;4.65;;;15.20;63.90;;;;;;6127356;29;20062;-78
2023/04/09 12:49:07;;;;;;;6.63;4.82;;;15.30;64.30;;;;;;6149075;29;20055;-76
2023/04/09 12:52:09;;;;;;;6.40;4.53;;;15.20;63.30;;;;;;6147942;29;20094;-79
2023/04/09 12:55:12;;;;;;;6.95;4.75;;;15.30;63.10;;;;;;6126765;29;20129;-80
2023/04/09 12:58:15;;;;;;;6.20;4.25;;;15.70;62.70;;;;;;6112150;29;20062;-77
2023/04/09 13:01:17;;;;;;;6.07;4.22;;;16.10;62.60;;;;;;6124852;29;20056;-77
2023/04/09 13:04:18;;;;;;;8.65;4.13;;;16.40;63.20;;;;;;6124122;29;20453;-79
2023/04/09 13:07:21;;;;;;;6.70;4.93;;;16.50;61.50;;;;;;6124054;29;20054;-77
2023/04/09 13:10:23;;;;;;;6.80;4.97;;;16.50;58.60;;;;;;6129916;29;20051;-77
2023/04/09 13:13:27;;;;;;;5.90;4.38;;;16.50;58.50;;;;;;6127250;29;20050;-76
2023/04/09 13:16:30;;;;;;;6.25;4.60;;;16.60;58.30;;;;;;6122571;29;20802;-77
2023/04/09 13:19:32;;;;;;;6.45;4.63;;;16.50;57.20;;;;;;6124655;29;20059;-79
2023/04/09 13:22:34;;;;;;;5.50;4.22;;;16.70;57.10;;;;;;6152160;29;20083;-77
2023/04/09 13:25:36;;;;;;;5.93;4.50;;;17.00;57.10;;;;;;6155516;29;20055;-82
2023/04/09 13:28:40;;;;;;;5.10;3.58;;;16.90;56.30;;;;;;6131298;29;20462;-76
2023/04/09 13:31:41;;;;;;;6.32;3.88;;;16.90;63.30;;;;;;6129359;29;20047;-73
2023/04/09 13:34:43;;;;;;;6.93;4.07;;;17.40;62.20;;;;;;6131548;29;20114;-74
2023/04/09 13:37:45;;;;;;;5.30;3.63;;;17.50;61.60;;;;;;6126506;29;20051;-75
2023/04/09 13:40:47;;;;;;;6.13;4.15;;;18.10;62.50;;;;;;6108327;29;20490;-72
2023/04/09 13:43:50;;;;;;;7.13;3.90;;;18.00;59.90;;;;;;6121805;29;20232;-71
2023/04/09 13:46:52;;;;;;;6.18;4.05;;;18.30;58.20;;;;;;6128608;29;20051;-71
2023/04/09 13:49:54;;;;;;;6.13;4.15;;;18.30;56.50;;;;;;6122815;29;20048;-73
2023/04/09 13:52:56;;;;;;;5.95;4.03;;;18.20;58.50;;;;;;6126960;29;20501;-73
2023/04/09 13:55:58;;;;;;;6.95;4.63;;;18.80;57.10;;;;;;6123283;29;20059;-75
2023/04/09 13:59:01;;;;;;;5.88;3.97;;;18.60;55.00;;;;;;6116624;29;20066;-71
2023/04/09 14:02:03;;;;;;;6.07;4.28;;;18.10;55.10;;;;;;6126795;29;20051;-73
2023/04/09 14:05:06;;;;;;;6.10;3.85;;;18.60;56.50;;;;;;6128989;29;20051;-74
2023/04/09 14:08:08;;;;;;;5.10;3.55;;;18.60;57.00;;;;;;6125549;29;20512;-75
2023/04/09 14:11:12;;;;;;;6.20;4.20;;;18.90;59.40;;;;;;6128247;29;20610;-76
2023/04/09 14:14:16;;;;;;;5.10;3.78;;;19.20;54.80;;;;;;6126468;29;20190;-72
2023/04/09 14:17:18;;;;;;;7.10;4.07;;;19.80;54.50;;;;;;6126469;29;20095;-72
2023/04/09 14:20:23;;;;;;;6.40;4.05;;;20.60;53.90;;;;;;6120149;29;20088;-74
2023/04/09 14:23:26;;;;;;;5.57;3.72;;;20.60;52.80;;;;;;6126818;29;20135;-72
2023/04/09 14:26:28;;;;;;;5.15;4.00;;;20.90;49.80;;;;;;6120258;29;20505;-74
2023/04/09 14:29:31;;;;;;;4.60;3.45;;;21.00;49.20;;;;;;6125469;28;20206;-78
2023/04/09 14:32:33;;;;;;;5.80;4.10;;;21.50;47.80;;;;;;6139828;28;20531;-76
2023/04/09 14:35:35;;;;;;;5.53;4.20;;;21.30;46.40;;;;;;6134293;29;20090;-78
2023/04/09 14:38:37;;;;;;;5.07;3.72;;;21.30;47.30;;;;;;6142446;28;20048;-79
2023/04/09 14:41:40;;;;;;;5.43;4.17;;;21.90;45.70;;;;;;6128258;29;20048;-78
2023/04/09 14:44:43;;;;;;;5.20;3.80;;;22.50;45.10;;;;;;6127964;29;20079;-78
2023/04/09 14:47:45;;;;;;;;;;;23.30;45.10;;;;;;6130428;29;20508;-76
2023/04/09 14:50:50;;;;;;;6.47;4.43;;;22.50;42.60;;;;;;6128845;29;20017;-77
2023/04/09 14:53:52;;;;;;;5.72;4.25;;;23.10;42.40;;;;;;6128481;29;20162;-76
2023/04/09 14:56:53;;;;;;;7.03;4.80;;;23.50;42.30;;;;;;6127386;29;20059;-76
2023/04/09 14:59:57;;;;;;;5.70;4.80;;;24.90;40.90;;;;;;6127682;29;20311;-77
2023/04/09 15:02:59;;;;;;;4.90;3.83;;;26.30;38.80;;;;;;6127756;29;20064;-76
2023/04/09 15:06:00;;;;;;;5.30;4.20;;;29.60;37.20;;;;;;6127093;29;20060;-76
2023/04/09 15:09:02;;;;;;;4.22;3.45;;;31.80;33.90;;;;;;6127889;29;20051;-75
2023/04/09 15:12:04;;;;;;;;;;;32.70;32.50;;;;;;6128370;29;20126;-77
2023/04/09 15:15:09;;;;;;;4.82;3.05;;;33.80;31.30;;;;;;6126201;29;19927;-77
2023/04/09 15:18:11;;;;;;;3.80;2.83;;;34.80;30.00;;;;;;6127380;29;20056;-76
2023/04/09 15:21:13;;;;;;;4.50;3.72;;;35.90;29.90;;;;;;6126383;29;20047;-76
2023/04/09 15:24:14;;;;;;;3.88;3.10;;;33.90;30.00;;;;;;6127418;29;20048;-77
2023/04/09 15:27:16;;;;;;;4.65;3.50;;;35.90;29.70;;;;;;6126977;29;20055;-76
2023/04/09 15:30:20;;;;;;;3.90;3.10;;;34.40;29.20;;;;;;6125141;29;20047;-75
2023/04/09 15:33:22;;;;;;;3.88;3.10;;;34.20;29.20;;;;;;6126946;29;20063;-76
2023/04/09 15:36:25;;;;;;;4.80;3.80;;;33.30;29.90;;;;;;6126461;29;20191;-76
2023/04/09 15:39:27;;;;;;;4.82;3.72;;;29.20;30.70;;;;;;6126274;29;20055;-77
2023/04/09 15:42:29;;;;;;;4.47;3.60;;;27.20;32.40;;;;;;6125808;29;20071;-79
2023/04/09 15:45:32;;;;;;;4.60;3.78;;;27.50;34.90;;;;;;6123852;29;20146;-77
2023/04/09 15:48:34;;;;;;;4.57;3.60;;;30.40;31.80;;;;;;6126188;29;20052;-78
2023/04/09 15:51:36;;;;;;;5.13;3.70;;;31.50;31.10;;;;;;6125776;29;20063;-77
2023/04/09 15:54:37;;;;;;;4.93;3.80;;;31.80;30.80;;;;;;6124539;29;20051;-76
2023/04/09 15:57:39;;;;;;;4.15;3.35;;;32.00;30.90;;;;;;6123882;29;20063;-78
2023/04/09 16:00:42;;;;;;;;;;;32.40;31.10;;;;;;6125481;29;20486;-78
2023/04/09 16:03:50;;;;;;;4.70;3.60;;;32.80;30.40;;;;;;6125239;29;20288;-78
2023/04/09 16:06:52;;;;;;;4.60;3.63;;;32.20;31.00;;;;;;6125952;29;20055;-76
2023/04/09 16:09:54;;;;;;;4.32;3.50;;;33.40;30.90;;;;;;6120878;29;20050;-77
2023/04/09 16:12:56;;;;;;;4.40;3.63;;;34.10;29.60;;;;;;6121296;29;20059;-76
2023/04/09 16:16:00;;;;;;;5.05;4.20;;;32.00;30.30;;;;;;6124680;29;20047;-78
2023/04/09 16:19:01;;;;;;;5.65;4.18;;;29.70;31.00;;;;;;6122939;29;20066;-79
2023/04/09 16:22:03;;;;;;;5.30;4.37;;;28.10;32.60;;;;;;6122601;29;20416;-78
2023/04/09 16:25:06;;;;;;;5.33;3.90;;;27.00;33.80;;;;;;6124384;29;20445;-77
2023/04/09 16:28:08;;;;;;;5.00;3.70;;;28.40;33.90;;;;;;6123397;29;20051;-76
2023/04/09 16:31:11;;;;;;;5.00;3.92;;;29.60;33.40;;;;;;6147665;29;20051;-79
2023/04/09 16:34:13;;;;;;;5.82;3.95;;;30.60;32.60;;;;;;6145705;29;20043;-75
2023/04/09 16:37:15;;;;;;;4.70;3.92;;;31.30;31.80;;;;;;6123955;29;20051;-77
2023/04/09 16:40:20;;;;;;;4.70;3.92;;;29.30;32.10;;;;;;6125319;29;20052;-80
2023/04/09 16:43:22;;;;;;;5.18;3.60;;;29.30;32.80;;;;;;6122440;29;20051;-80
2023/04/09 16:46:25;;;;;;;4.90;3.60;;;29.60;32.30;;;;;;6122902;29;20587;-77
2023/04/09 16:49:27;;;;;;;5.53;4.10;;;28.50;32.20;;;;;;6135932;29;20034;-80
2023/04/09 16:52:29;;;;;;;4.80;3.60;;;27.00;33.20;;;;;;6147158;29;20138;-79
2023/04/09 16:55:31;;;;;;;5.00;4.03;;;27.00;34.20;;;;;;6143731;29;20061;-79
2023/04/09 16:58:33;;;;;;;5.32;4.07;;;26.80;33.70;;;;;;6105035;29;20081;-78
2023/04/09 17:01:36;;;;;;;5.10;3.90;;;26.20;34.40;;;;;;6119648;29;20059;-77
2023/04/09 17:04:38;;;;;;;5.20;4.30;;;26.50;34.90;;;;;;6125559;29;20450;-79
2023/04/09 17:07:40;;;;;;;5.38;4.20;;;26.80;34.50;;;;;;6125366;29;20055;-80
2023/04/09 17:10:43;;;;;;;6.15;4.70;;;26.20;34.80;;;;;;6125485;29;20044;-79
2023/04/09 17:13:45;;;;;;;5.83;4.47;;;25.30;35.40;;;;;;6126979;29;20055;-80
2023/04/09 17:16:48;;;;;;;5.63;4.10;;;24.80;36.60;;;;;;6125847;29;20485;-78
2023/04/09 17:19:50;;;;;;;6.28;3.90;;;24.20;37.10;;;;;;6124795;29;20044;-80
2023/04/09 17:22:52;;;;;;;5.72;4.30;;;23.50;37.40;;;;;;6120797;29;20052;-78
2023/04/09 17:25:54;;;;;;;5.47;4.10;;;23.10;37.40;;;;;;6126170;29;20044;-77
2023/04/09 17:28:55;;;;;;;5.25;3.92;;;22.90;37.60;;;;;;6124206;29;20190;-80
2023/04/09 17:31:59;;;;;;;6.95;3.80;;;22.70;40.20;;;;;;6122703;29;20055;-80
2023/04/09 17:35:02;;;;;;;6.82;4.05;;;22.70;40.90;;;;;;6131160;29;20681;-81
2023/04/09 17:38:05;;;;;;;;;;;22.30;41.70;;;;;;6146099;29;20047;-79
2023/04/09 17:41:07;;;;;;;7.18;5.10;;;22.00;41.10;;;;;;6120881;29;20021;-77
2023/04/09 17:44:09;;;;;;;6.60;4.93;;;21.30;42.40;;;;;;6122525;29;20044;-79
2023/04/09 17:47:12;;;;;;;5.82;4.55;;;20.80;43.90;;;;;;6123126;29;20044;-80
2023/04/09 17:50:14;;;;;;;6.47;4.60;;;20.70;43.30;;;;;;6124378;29;20062;-79
2023/04/09 17:53:16;;;;;;;7.85;4.63;;;20.30;44.00;;;;;;6124012;29;20112;-77
2023/04/09 17:56:19;;;;;;;6.38;4.80;;;20.00;44.80;;;;;;6121422;29;20432;-78
2023/04/09 17:59:21;;;;;;;6.30;4.75;;;19.70;44.80;;;;;;6118779;29;20052;-80
2023/04/09 18:02:24;;;;;;;7.18;4.70;;;19.30;45.10;;;;;;6122732;29;20064;-79
2023/04/09 18:05:28;;;;;;;6.68;4.95;;;18.90;45.70;;;;;;6118728;29;20048;-75
2023/04/09 18:08:30;;;;;;;6.65;4.80;;;18.50;47.00;;;;;;6127084;29;20051;-78
2023/04/09 18:11:32;;;;;;;7.07;4.85;;;18.10;47.30;;;;;;6126740;29;20054;-79
2023/04/09 18:14:35;;;;;;;7.15;4.88;;;17.70;48.20;;;;;;6135593;29;20047;-78
2023/04/09 18:17:38;;;;;;;6.95;5.15;;;17.50;49.00;;;;;;6127507;29;20056;-78
2023/04/09 18:20:40;;;;;;;7.90;5.25;;;17.10;48.80;;;;;;6127163;29;20063;-79
2023/04/09 18:23:42;;;;;;;8.13;5.68;;;16.90;49.40;;;;;;6127464;29;20063;-78
2023/04/09 18:26:44;;;;;;;8.40;6.10;;;16.50;49.90;;;;;;6126275;29;20549;-79
2023/04/09 18:29:47;;;;;;;8.52;6.07;;;15.90;50.40;;;;;;6129350;29;20058;-77
2023/04/09 18:32:51;;;;;;;7.35;5.85;;;15.70;51.30;;;;;;6127700;29;20580;-77
2023/04/09 18:35:53;;;;;;;9.02;6.10;;;15.60;51.80;;;;;;6126730;29;20055;-78
2023/04/09 18:38:55;;;;;;;8.85;6.32;;;15.50;51.90;;;;;;6126655;29;20417;-77
2023/04/09 18:41:57;;;;;;;9.02;5.93;;;15.40;52.60;;;;;;6127294;29;20490;-78
2023/04/09 18:44:59;;;;;;;8.63;5.75;;;15.30;52.90;;;;;;6126064;29;20056;-77
2023/04/09 18:48:02;;;;;;;8.73;5.93;;;15.20;53.20;;;;;;6126803;29;20063;-78
2023/04/09 18:51:05;;;;;;;8.70;6.38;;;15.00;53.40;;;;;;6127459;29;20579;-80
2023/04/09 18:54:07;;;;;;;9.38;6.25;;;14.70;54.00;;;;;;6128000;29;20545;-80
2023/04/09 18:57:08;;;;;;;10.20;6.32;;;14.70;54.40;;;;;;6125674;29;20058;-78
2023/04/09 19:00:12;;;;;;;8.15;5.65;;;14.60;55.30;;;;;;6124541;29;20742;-80
2023/04/09 19:03:16;;;;;;;8.55;5.80;;;14.60;55.40;;;;;;6124922;29;20062;-84
2023/04/09 19:06:19;;;;;;;9.98;5.35;;;14.60;55.70;;;;;;6123769;29;20059;-81
2023/04/09 19:09:22;;;;;;;8.23;6.40;;;14.50;57.80;;;;;;6126096;29;20052;-83
2023/04/09 19:12:25;;;;;;;8.38;5.72;;;14.30;56.50;;;;;;6126254;29;20134;-80
2023/04/09 19:15:28;;;;;;;;;;;14.10;58.00;;;;;;6125983;29;20395;-79
2023/04/09 19:18:32;;;;;;;8.57;5.85;;;14.10;58.60;;;;;;6125861;29;19929;-79
2023/04/09 19:21:34;;;;;;;8.38;5.47;;;14.00;57.90;;;;;;6126158;29;20078;-80
2023/04/09 19:24:36;;;;;;;8.68;5.90;;;13.90;58.80;;;;;;6127155;29;20054;-80
2023/04/09 19:27:39;;;;;;;7.70;5.70;;;13.60;60.00;;;;;;6124866;29;20087;-78
2023/04/09 19:30:40;;;;;;;7.28;5.50;;;13.60;60.20;;;;;;6125193;29;20058;-79
2023/04/09 19:33:46;;;;;;;8.82;6.28;;;13.60;60.60;;;;;;6126210;29;20044;-77
2023/04/09 19:36:49;;;;;;;8.68;6.20;;;13.40;60.90;;;;;;6125186;29;20066;-77
2023/04/09 19:39:51;;;;;;;9.60;6.20;;;13.40;60.70;;;;;;6125950;29;20056;-78
2023/04/09 19:42:54;;;;;;;9.18;6.45;;;13.30;61.30;;;;;;6126268;29;20502;-78
2023/04/09 19:45:56;;;;;;;8.68;6.47;;;13.30;61.00;;;;;;6123952;29;20401;-78
2023/04/09 19:49:00;;;;;;;8.57;6.13;;;13.20;61.50;;;;;;6126236;29;20052;-77
2023/04/09 19:52:05;;;;;;;9.23;6.47;;;13.10;62.10;;;;;;6127058;29;20048;-82
2023/04/09 19:55:09;;;;;;;9.20;6.95;;;13.10;61.70;;;;;;6124815;29;20056;-77
2023/04/09 19:58:10;;;;;;;10.23;7.05;;;13.00;61.70;;;;;;6123635;29;20044;-78
2023/04/09 20:01:13;;;;;;;9.70;7.25;;;12.90;61.50;;;;;;6123607;29;20421;-78
2023/04/09 20:04:16;;;;;;;9.77;7.38;;;12.80;62.60;;;;;;6123657;29;20055;-80
2023/04/09 20:07:18;;;;;;;12.38;7.25;;;12.70;62.30;;;;;;6125713;29;20062;-78
2023/04/09 20:10:20;;;;;;;10.32;7.40;;;12.70;62.60;;;;;;6125459;29;20047;-78
2023/04/09 20:13:24;;;;;;;10.20;7.47;;;12.60;63.40;;;;;;6125429;29;20054;-80
2023/04/09 20:16:25;;;;;;;10.73;7.25;;;12.60;64.30;;;;;;6124172;29;20048;-79
2023/04/09 20:19:29;;;;;;;10.48;7.47;;;12.50;63.90;;;;;;6125736;29;20056;-78
2023/04/09 20:22:31;;;;;;;10.68;7.75;;;12.20;64.90;;;;;;6125102;29;20047;-79
2023/04/09 20:25:35;;;;;;;10.95;7.93;;;12.20;65.00;;;;;;6124478;29;20060;-78
2023/04/09 20:28:37;;;;;;;11.68;8.18;;;12.20;65.60;;;;;;6125348;29;20052;-77
2023/04/09 20:31:39;;;;;;;12.85;8.43;;;12.10;65.50;;;;;;6126506;29;20198;-78
2023/04/09 20:34:42;;;;;;;11.50;8.32;;;12.00;66.90;;;;;;6123966;29;20274;-78
2023/04/09 20:37:47;;;;;;;11.60;7.95;;;12.00;66.60;;;;;;6125726;29;20150;-76
2023/04/09 20:40:51;;;;;;;12.68;8.60;;;11.90;66.10;;;;;;6125348;29;20069;-76
2023/04/09 20:43:53;;;;;;;11.10;8.27;;;11.90;66.40;;;;;;6124255;29;20047;-77
2023/04/09 20:46:55;;;;;;;12.32;8.57;;;11.90;66.90;;;;;;6121124;29;20402;-79
2023/04/09 20:49:59;;;;;;;11.02;8.05;;;11.80;67.40;;;;;;6123281;29;20063;-77
2023/04/09 20:53:01;;;;;;;12.23;8.20;;;11.70;67.50;;;;;;6123370;29;20568;-77